sensor_id;sensor_type;location;lat;lon;timestamp;temperature;humidity
44647;DHT22;56315;-33.902;151.160;2023-01-19T00:01:59;20.00;99.90
44647;DHT22;56315;-33.902;151.160;2023-01-19T00:04:26;20.10;99.90
44647;DHT22;56315;-33.902;151.160;2023-01-19T00:06:53;20.10;99.90
44647;DHT22;56315;-33.902;151.160;2023-01-19T00:12:17;20.10;99.90
44647;DHT22;56315;-33.902;151.160;2023-01-19T00:14:43;20.20;99.90
44647;DHT22;56315;-33.902;151.160;2023-01-19T00:17:10;20.20;99.90
44647;DHT22;56315;-33.902;151.160;2023-01-19T00:19:37;20.20;99.90
44647;DHT22;56315;-33.902;151.160;2023-01-19T00:22:04;20.30;99.90
44647;DHT22;56315;-33.902;151.160;2023-01-19T00:24:33;20.30;99.90
44647;DHT22;56315;-33.902;151.160;2023-01-19T00:27:00;20.40;99.90
44647;DHT22;56315;-33.902;151.160;2023-01-19T00:29:29;20.40;99.90
44647;DHT22;56315;-33.902;151.160;2023-01-19T00:31:59;20.50;99.90
44647;DHT22;56315;-33.902;151.160;2023-01-19T00:34:26;20.50;99.90
44647;DHT22;56315;-33.902;151.160;2023-01-19T00:37:02;20.50;99.90
44647;DHT22;56315;-33.902;151.160;2023-01-19T00:39:29;20.60;99.90
44647;DHT22;56315;-33.902;151.160;2023-01-19T00:41:56;20.70;99.90
44647;DHT22;56315;-33.902;151.160;2023-01-19T00:44:40;20.80;99.90
44647;DHT22;56315;-33.902;151.160;2023-01-19T00:47:07;20.80;99.90
44647;DHT22;56315;-33.902;151.160;2023-01-19T00:49:36;20.90;99.90
44647;DHT22;56315;-33.902;151.160;2023-01-19T00:52:02;21.00;99.90
44647;DHT22;56315;-33.902;151.160;2023-01-19T00:54:29;21.00;99.90
44647;DHT22;56315;-33.902;151.160;2023-01-19T00:56:56;21.00;99.90
44647;DHT22;56315;-33.902;151.160;2023-01-19T00:59:22;20.90;99.90
44647;DHT22;56315;-33.902;151.160;2023-01-19T01:01:50;20.80;99.90
44647;DHT22;56315;-33.902;151.160;2023-01-19T01:04:17;20.80;99.90
44647;DHT22;56315;-33.902;151.160;2023-01-19T01:06:43;20.70;99.90
44647;DHT22;56315;-33.902;151.160;2023-01-19T01:09:10;20.60;99.90
44647;DHT22;56315;-33.902;151.160;2023-01-19T01:11:38;20.70;99.90
44647;DHT22;56315;-33.902;151.160;2023-01-19T01:14:05;20.70;99.90
44647;DHT22;56315;-33.902;151.160;2023-01-19T01:16:32;20.70;99.90
44647;DHT22;56315;-33.902;151.160;2023-01-19T01:18:58;20.80;99.90
44647;DHT22;56315;-33.902;151.160;2023-01-19T01:21:25;20.80;99.90
44647;DHT22;56315;-33.902;151.160;2023-01-19T01:23:51;20.80;99.90
44647;DHT22;56315;-33.902;151.160;2023-01-19T01:26:18;20.90;99.90
44647;DHT22;56315;-33.902;151.160;2023-01-19T01:28:45;20.90;99.90
44647;DHT22;56315;-33.902;151.160;2023-01-19T01:31:11;20.90;99.90
44647;DHT22;56315;-33.902;151.160;2023-01-19T01:33:38;20.80;99.90
44647;DHT22;56315;-33.902;151.160;2023-01-19T01:36:05;20.70;99.90
44647;DHT22;56315;-33.902;151.160;2023-01-19T01:38:31;20.70;99.90
44647;DHT22;56315;-33.902;151.160;2023-01-19T01:40:58;20.70;99.90
44647;DHT22;56315;-33.902;151.160;2023-01-19T01:43:40;20.70;99.90
44647;DHT22;56315;-33.902;151.160;2023-01-19T01:46:07;20.70;99.90
44647;DHT22;56315;-33.902;151.160;2023-01-19T01:48:34;20.80;99.90
44647;DHT22;56315;-33.902;151.160;2023-01-19T01:51:12;20.70;99.90
44647;DHT22;56315;-33.902;151.160;2023-01-19T01:56:34;20.60;99.90
44647;DHT22;56315;-33.902;151.160;2023-01-19T01:59:02;20.60;99.90
44647;DHT22;56315;-33.902;151.160;2023-01-19T02:01:29;20.50;99.90
44647;DHT22;56315;-33.902;151.160;2023-01-19T02:04:14;20.40;99.90
44647;DHT22;56315;-33.902;151.160;2023-01-19T02:06:41;20.30;99.90
44647;DHT22;56315;-33.902;151.160;2023-01-19T02:09:25;20.30;99.90
44647;DHT22;56315;-33.902;151.160;2023-01-19T02:12:12;20.10;99.90
44647;DHT22;56315;-33.902;151.160;2023-01-19T02:14:57;20.10;99.90
44647;DHT22;56315;-33.902;151.160;2023-01-19T02:17:24;20.10;99.90
44647;DHT22;56315;-33.902;151.160;2023-01-19T02:19:51;20.10;99.90
44647;DHT22;56315;-33.902;151.160;2023-01-19T02:22:27;20.10;99.90
44647;DHT22;56315;-33.902;151.160;2023-01-19T02:25:03;20.10;99.90
44647;DHT22;56315;-33.902;151.160;2023-01-19T02:27:30;20.10;99.90
44647;DHT22;56315;-33.902;151.160;2023-01-19T02:29:58;20.10;99.90
44647;DHT22;56315;-33.902;151.160;2023-01-19T02:32:24;20.20;99.90
44647;DHT22;56315;-33.902;151.160;2023-01-19T02:34:51;20.20;99.90
44647;DHT22;56315;-33.902;151.160;2023-01-19T02:37:18;20.20;99.90
44647;DHT22;56315;-33.902;151.160;2023-01-19T02:42:19;20.10;99.90
44647;DHT22;56315;-33.902;151.160;2023-01-19T02:44:47;20.20;99.90
44647;DHT22;56315;-33.902;151.160;2023-01-19T02:47:14;20.20;99.90
44647;DHT22;56315;-33.902;151.160;2023-01-19T02:49:41;20.40;99.90
44647;DHT22;56315;-33.902;151.160;2023-01-19T02:52:09;20.50;99.90
44647;DHT22;56315;-33.902;151.160;2023-01-19T02:57:19;20.80;99.90
44647;DHT22;56315;-33.902;151.160;2023-01-19T03:05:04;21.00;99.90
44647;DHT22;56315;-33.902;151.160;2023-01-19T03:12:43;21.30;99.90
44647;DHT22;56315;-33.902;151.160;2023-01-19T03:15:22;21.30;99.90
44647;DHT22;56315;-33.902;151.160;2023-01-19T03:17:52;21.30;99.90
44647;DHT22;56315;-33.902;151.160;2023-01-19T03:20:20;21.30;99.90
44647;DHT22;56315;-33.902;151.160;2023-01-19T03:22:51;21.30;99.90
44647;DHT22;56315;-33.902;151.160;2023-01-19T03:25:18;21.30;99.90
44647;DHT22;56315;-33.902;151.160;2023-01-19T03:27:46;21.20;99.90
44647;DHT22;56315;-33.902;151.160;2023-01-19T03:30:14;21.10;99.90
44647;DHT22;56315;-33.902;151.160;2023-01-19T03:32:47;21.00;99.90
44647;DHT22;56315;-33.902;151.160;2023-01-19T03:35:15;21.00;99.90
44647;DHT22;56315;-33.902;151.160;2023-01-19T03:37:44;21.10;99.90
44647;DHT22;56315;-33.902;151.160;2023-01-19T03:40:11;21.10;99.90
44647;DHT22;56315;-33.902;151.160;2023-01-19T03:42:38;21.10;99.90
44647;DHT22;56315;-33.902;151.160;2023-01-19T03:45:06;21.10;99.90
44647;DHT22;56315;-33.902;151.160;2023-01-19T03:47:32;21.10;99.90
44647;DHT22;56315;-33.902;151.160;2023-01-19T03:50:00;21.10;99.90
44647;DHT22;56315;-33.902;151.160;2023-01-19T03:52:28;20.90;99.90
44647;DHT22;56315;-33.902;151.160;2023-01-19T03:54:57;20.80;99.90
44647;DHT22;56315;-33.902;151.160;2023-01-19T03:57:23;20.80;99.90
44647;DHT22;56315;-33.902;151.160;2023-01-19T03:59:50;20.80;99.90
44647;DHT22;56315;-33.902;151.160;2023-01-19T04:02:18;20.80;99.90
44647;DHT22;56315;-33.902;151.160;2023-01-19T04:04:44;20.80;99.90
44647;DHT22;56315;-33.902;151.160;2023-01-19T04:07:11;20.70;99.90
44647;DHT22;56315;-33.902;151.160;2023-01-19T04:09:39;20.60;99.90
44647;DHT22;56315;-33.902;151.160;2023-01-19T04:12:05;20.60;99.90
44647;DHT22;56315;-33.902;151.160;2023-01-19T04:14:32;20.60;99.90
44647;DHT22;56315;-33.902;151.160;2023-01-19T04:16:59;20.60;99.90
44647;DHT22;56315;-33.902;151.160;2023-01-19T04:19:26;20.60;99.90
44647;DHT22;56315;-33.902;151.160;2023-01-19T04:21:52;20.70;99.90
44647;DHT22;56315;-33.902;151.160;2023-01-19T04:24:20;20.70;99.90
44647;DHT22;56315;-33.902;151.160;2023-01-19T04:26:47;20.70;99.90
44647;DHT22;56315;-33.902;151.160;2023-01-19T04:29:16;20.60;99.90
44647;DHT22;56315;-33.902;151.160;2023-01-19T04:31:43;20.70;99.90
44647;DHT22;56315;-33.902;151.160;2023-01-19T04:34:09;20.80;99.90
44647;DHT22;56315;-33.902;151.160;2023-01-19T04:36:36;21.00;99.90
44647;DHT22;56315;-33.902;151.160;2023-01-19T04:39:02;21.10;99.90
44647;DHT22;56315;-33.902;151.160;2023-01-19T04:41:29;21.10;99.90
44647;DHT22;56315;-33.902;151.160;2023-01-19T04:43:56;21.10;99.90
44647;DHT22;56315;-33.902;151.160;2023-01-19T04:46:23;21.00;99.90
44647;DHT22;56315;-33.902;151.160;2023-01-19T04:48:49;20.90;99.90
44647;DHT22;56315;-33.902;151.160;2023-01-19T04:51:16;20.80;99.90
44647;DHT22;56315;-33.902;151.160;2023-01-19T04:53:43;20.60;99.90
44647;DHT22;56315;-33.902;151.160;2023-01-19T04:56:09;20.50;99.90
44647;DHT22;56315;-33.902;151.160;2023-01-19T04:58:37;20.60;99.90
44647;DHT22;56315;-33.902;151.160;2023-01-19T05:01:07;20.60;99.90
44647;DHT22;56315;-33.902;151.160;2023-01-19T05:03:34;20.60;99.90
44647;DHT22;56315;-33.902;151.160;2023-01-19T05:06:00;20.60;99.90
44647;DHT22;56315;-33.902;151.160;2023-01-19T05:08:27;20.70;99.90
44647;DHT22;56315;-33.902;151.160;2023-01-19T05:10:54;20.70;99.90
44647;DHT22;56315;-33.902;151.160;2023-01-19T05:13:22;20.60;99.90
44647;DHT22;56315;-33.902;151.160;2023-01-19T05:15:48;20.60;99.90
44647;DHT22;56315;-33.902;151.160;2023-01-19T05:18:15;20.60;99.90
44647;DHT22;56315;-33.902;151.160;2023-01-19T05:20:41;20.70;99.90
44647;DHT22;56315;-33.902;151.160;2023-01-19T05:23:08;20.70;99.90
44647;DHT22;56315;-33.902;151.160;2023-01-19T05:25:35;20.80;99.90
44647;DHT22;56315;-33.902;151.160;2023-01-19T05:28:01;20.70;99.90
44647;DHT22;56315;-33.902;151.160;2023-01-19T05:30:28;20.70;99.90
44647;DHT22;56315;-33.902;151.160;2023-01-19T05:32:55;20.60;99.90
44647;DHT22;56315;-33.902;151.160;2023-01-19T05:35:21;20.60;99.90
44647;DHT22;56315;-33.902;151.160;2023-01-19T05:37:48;20.70;99.90
44647;DHT22;56315;-33.902;151.160;2023-01-19T05:40:15;20.60;99.90
44647;DHT22;56315;-33.902;151.160;2023-01-19T05:42:42;20.70;99.90
44647;DHT22;56315;-33.902;151.160;2023-01-19T05:45:08;20.70;99.90
44647;DHT22;56315;-33.902;151.160;2023-01-19T05:47:36;20.80;99.90
44647;DHT22;56315;-33.902;151.160;2023-01-19T05:50:03;20.80;99.90
44647;DHT22;56315;-33.902;151.160;2023-01-19T05:52:29;20.70;99.90
44647;DHT22;56315;-33.902;151.160;2023-01-19T05:54:56;20.60;99.90
44647;DHT22;56315;-33.902;151.160;2023-01-19T05:57:23;20.60;99.90
44647;DHT22;56315;-33.902;151.160;2023-01-19T05:59:49;20.60;99.90
44647;DHT22;56315;-33.902;151.160;2023-01-19T06:02:16;20.60;99.90
44647;DHT22;56315;-33.902;151.160;2023-01-19T06:04:42;20.50;99.90
44647;DHT22;56315;-33.902;151.160;2023-01-19T06:07:09;20.50;99.90
44647;DHT22;56315;-33.902;151.160;2023-01-19T06:09:36;20.60;99.90
44647;DHT22;56315;-33.902;151.160;2023-01-19T06:12:03;20.60;99.90
44647;DHT22;56315;-33.902;151.160;2023-01-19T06:14:29;20.60;99.90
44647;DHT22;56315;-33.902;151.160;2023-01-19T06:16:57;20.50;99.90
44647;DHT22;56315;-33.902;151.160;2023-01-19T06:19:23;20.60;99.90
44647;DHT22;56315;-33.902;151.160;2023-01-19T06:21:50;20.60;99.90
44647;DHT22;56315;-33.902;151.160;2023-01-19T06:24:17;20.50;99.90
44647;DHT22;56315;-33.902;151.160;2023-01-19T06:26:44;20.50;99.90
44647;DHT22;56315;-33.902;151.160;2023-01-19T06:29:10;20.40;99.90
44647;DHT22;56315;-33.902;151.160;2023-01-19T06:31:38;20.30;99.90
44647;DHT22;56315;-33.902;151.160;2023-01-19T06:34:05;20.30;99.90
44647;DHT22;56315;-33.902;151.160;2023-01-19T06:36:31;20.20;99.90
44647;DHT22;56315;-33.902;151.160;2023-01-19T06:38:58;20.30;99.90
44647;DHT22;56315;-33.902;151.160;2023-01-19T06:41:28;20.30;99.90
44647;DHT22;56315;-33.902;151.160;2023-01-19T06:43:54;20.40;99.90
44647;DHT22;56315;-33.902;151.160;2023-01-19T06:46:21;20.40;99.90
44647;DHT22;56315;-33.902;151.160;2023-01-19T06:48:48;20.40;99.90
44647;DHT22;56315;-33.902;151.160;2023-01-19T06:51:14;20.40;99.90
44647;DHT22;56315;-33.902;151.160;2023-01-19T06:53:41;20.40;99.90
44647;DHT22;56315;-33.902;151.160;2023-01-19T06:56:07;20.40;99.90
44647;DHT22;56315;-33.902;151.160;2023-01-19T06:58:34;20.30;99.90
44647;DHT22;56315;-33.902;151.160;2023-01-19T07:01:02;20.30;99.90
44647;DHT22;56315;-33.902;151.160;2023-01-19T07:03:29;20.40;99.90
44647;DHT22;56315;-33.902;151.160;2023-01-19T07:05:56;20.30;99.90
44647;DHT22;56315;-33.902;151.160;2023-01-19T07:08:23;20.30;99.90
44647;DHT22;56315;-33.902;151.160;2023-01-19T07:10:49;20.30;99.90
44647;DHT22;56315;-33.902;151.160;2023-01-19T07:13:16;20.20;99.90
44647;DHT22;56315;-33.902;151.160;2023-01-19T07:15:42;20.20;99.90
44647;DHT22;56315;-33.902;151.160;2023-01-19T07:18:09;20.10;99.90
44647;DHT22;56315;-33.902;151.160;2023-01-19T07:20:36;20.00;99.90
44647;DHT22;56315;-33.902;151.160;2023-01-19T07:23:03;20.00;99.90
44647;DHT22;56315;-33.902;151.160;2023-01-19T07:25:29;20.00;99.90
44647;DHT22;56315;-33.902;151.160;2023-01-19T07:27:59;19.90;99.90
44647;DHT22;56315;-33.902;151.160;2023-01-19T07:30:26;19.90;99.90
44647;DHT22;56315;-33.902;151.160;2023-01-19T07:32:56;19.80;99.90
44647;DHT22;56315;-33.902;151.160;2023-01-19T07:35:23;19.80;99.90
44647;DHT22;56315;-33.902;151.160;2023-01-19T07:37:49;19.80;99.90
44647;DHT22;56315;-33.902;151.160;2023-01-19T07:40:16;19.80;99.90
44647;DHT22;56315;-33.902;151.160;2023-01-19T07:42:49;19.90;99.90
44647;DHT22;56315;-33.902;151.160;2023-01-19T07:45:17;19.80;99.90
44647;DHT22;56315;-33.902;151.160;2023-01-19T07:47:44;19.80;99.90
44647;DHT22;56315;-33.902;151.160;2023-01-19T07:50:13;19.80;99.90
44647;DHT22;56315;-33.902;151.160;2023-01-19T07:52:40;19.90;99.90
44647;DHT22;56315;-33.902;151.160;2023-01-19T07:55:07;19.90;99.90
44647;DHT22;56315;-33.902;151.160;2023-01-19T07:57:34;19.80;99.90
44647;DHT22;56315;-33.902;151.160;2023-01-19T08:00:01;19.70;99.90
44647;DHT22;56315;-33.902;151.160;2023-01-19T08:02:28;19.60;99.90
44647;DHT22;56315;-33.902;151.160;2023-01-19T08:04:55;19.60;99.90
44647;DHT22;56315;-33.902;151.160;2023-01-19T08:07:21;19.60;99.90
44647;DHT22;56315;-33.902;151.160;2023-01-19T08:09:48;19.60;99.90
44647;DHT22;56315;-33.902;151.160;2023-01-19T08:12:15;19.60;99.90
44647;DHT22;56315;-33.902;151.160;2023-01-19T08:14:41;19.60;99.90
44647;DHT22;56315;-33.902;151.160;2023-01-19T08:17:11;19.60;99.90
44647;DHT22;56315;-33.902;151.160;2023-01-19T08:19:38;19.60;99.90
44647;DHT22;56315;-33.902;151.160;2023-01-19T08:22:06;19.70;99.90
44647;DHT22;56315;-33.902;151.160;2023-01-19T08:24:32;19.70;99.90
44647;DHT22;56315;-33.902;151.160;2023-01-19T08:27:00;19.80;99.90
44647;DHT22;56315;-33.902;151.160;2023-01-19T08:29:27;19.70;99.90
44647;DHT22;56315;-33.902;151.160;2023-01-19T08:31:55;19.80;99.90
44647;DHT22;56315;-33.902;151.160;2023-01-19T08:34:24;19.80;99.90
44647;DHT22;56315;-33.902;151.160;2023-01-19T08:36:51;19.80;99.90
44647;DHT22;56315;-33.902;151.160;2023-01-19T08:39:18;19.80;99.90
44647;DHT22;56315;-33.902;151.160;2023-01-19T08:41:45;19.80;99.90
44647;DHT22;56315;-33.902;151.160;2023-01-19T08:44:12;19.90;99.90
44647;DHT22;56315;-33.902;151.160;2023-01-19T08:46:38;19.80;99.90
44647;DHT22;56315;-33.902;151.160;2023-01-19T08:49:05;19.80;99.90
44647;DHT22;56315;-33.902;151.160;2023-01-19T08:51:32;19.80;99.90
44647;DHT22;56315;-33.902;151.160;2023-01-19T08:53:58;19.80;99.90
44647;DHT22;56315;-33.902;151.160;2023-01-19T08:56:25;19.80;99.90
44647;DHT22;56315;-33.902;151.160;2023-01-19T08:58:51;19.80;99.90
44647;DHT22;56315;-33.902;151.160;2023-01-19T09:01:18;19.70;99.90
44647;DHT22;56315;-33.902;151.160;2023-01-19T09:03:48;19.80;99.90
44647;DHT22;56315;-33.902;151.160;2023-01-19T09:06:15;19.70;99.90
44647;DHT22;56315;-33.902;151.160;2023-01-19T09:08:43;19.70;99.90
44647;DHT22;56315;-33.902;151.160;2023-01-19T09:11:10;19.80;99.90
44647;DHT22;56315;-33.902;151.160;2023-01-19T09:13:37;19.70;99.90
44647;DHT22;56315;-33.902;151.160;2023-01-19T09:16:04;19.80;99.90
44647;DHT22;56315;-33.902;151.160;2023-01-19T09:18:32;19.80;99.90
44647;DHT22;56315;-33.902;151.160;2023-01-19T09:21:00;19.80;99.90
44647;DHT22;56315;-33.902;151.160;2023-01-19T09:23:27;19.90;99.90
44647;DHT22;56315;-33.902;151.160;2023-01-19T09:25:57;19.90;99.90
44647;DHT22;56315;-33.902;151.160;2023-01-19T09:28:24;19.90;99.90
44647;DHT22;56315;-33.902;151.160;2023-01-19T09:30:51;19.90;99.90
44647;DHT22;56315;-33.902;151.160;2023-01-19T09:33:18;19.90;99.90
44647;DHT22;56315;-33.902;151.160;2023-01-19T09:35:45;19.90;99.90
44647;DHT22;56315;-33.902;151.160;2023-01-19T09:38:12;19.90;99.90
44647;DHT22;56315;-33.902;151.160;2023-01-19T09:40:40;19.90;99.90
44647;DHT22;56315;-33.902;151.160;2023-01-19T09:46:12;19.90;99.90
44647;DHT22;56315;-33.902;151.160;2023-01-19T09:48:47;19.90;99.90
44647;DHT22;56315;-33.902;151.160;2023-01-19T09:51:19;19.90;99.90
44647;DHT22;56315;-33.902;151.160;2023-01-19T09:56:17;19.90;99.90
44647;DHT22;56315;-33.902;151.160;2023-01-19T09:58:45;19.90;99.90
44647;DHT22;56315;-33.902;151.160;2023-01-19T10:03:48;19.90;99.90
44647;DHT22;56315;-33.902;151.160;2023-01-19T10:06:16;19.90;99.90
44647;DHT22;56315;-33.902;151.160;2023-01-19T10:08:51;19.90;99.90
44647;DHT22;56315;-33.902;151.160;2023-01-19T10:11:27;19.90;99.90
44647;DHT22;56315;-33.902;151.160;2023-01-19T10:13:55;20.10;99.90
44647;DHT22;56315;-33.902;151.160;2023-01-19T10:16:25;20.20;99.90
44647;DHT22;56315;-33.902;151.160;2023-01-19T10:19:29;20.30;99.90
44647;DHT22;56315;-33.902;151.160;2023-01-19T10:21:48;20.40;99.90
44647;DHT22;56315;-33.902;151.160;2023-01-19T10:24:22;20.40;99.90
44647;DHT22;56315;-33.902;151.160;2023-01-19T10:26:54;20.40;99.90
44647;DHT22;56315;-33.902;151.160;2023-01-19T10:29:23;20.40;99.90
44647;DHT22;56315;-33.902;151.160;2023-01-19T10:31:51;20.50;99.90
44647;DHT22;56315;-33.902;151.160;2023-01-19T10:34:18;20.50;99.90
44647;DHT22;56315;-33.902;151.160;2023-01-19T10:36:45;20.50;99.90
44647;DHT22;56315;-33.902;151.160;2023-01-19T10:39:14;20.50;99.90
44647;DHT22;56315;-33.902;151.160;2023-01-19T10:41:49;20.60;99.90
44647;DHT22;56315;-33.902;151.160;2023-01-19T10:44:28;20.60;99.90
44647;DHT22;56315;-33.902;151.160;2023-01-19T10:47:00;20.50;99.90
44647;DHT22;56315;-33.902;151.160;2023-01-19T10:51:54;20.50;99.90
44647;DHT22;56315;-33.902;151.160;2023-01-19T10:54:21;20.50;99.90
44647;DHT22;56315;-33.902;151.160;2023-01-19T10:56:52;20.50;99.90
44647;DHT22;56315;-33.902;151.160;2023-01-19T11:04:37;20.60;99.90
44647;DHT22;56315;-33.902;151.160;2023-01-19T11:07:26;20.60;99.90
44647;DHT22;56315;-33.902;151.160;2023-01-19T11:13:19;20.60;99.90
44647;DHT22;56315;-33.902;151.160;2023-01-19T11:15:28;20.70;99.90
44647;DHT22;56315;-33.902;151.160;2023-01-19T11:17:55;20.70;99.90
44647;DHT22;56315;-33.902;151.160;2023-01-19T11:23:02;20.60;99.90
44647;DHT22;56315;-33.902;151.160;2023-01-19T11:25:30;20.60;99.90
44647;DHT22;56315;-33.902;151.160;2023-01-19T11:27:58;20.60;99.90
44647;DHT22;56315;-33.902;151.160;2023-01-19T11:30:25;20.60;99.90
44647;DHT22;56315;-33.902;151.160;2023-01-19T11:32:51;20.60;99.90
44647;DHT22;56315;-33.902;151.160;2023-01-19T11:38:15;20.60;99.90
44647;DHT22;56315;-33.902;151.160;2023-01-19T11:40:49;20.70;99.90
44647;DHT22;56315;-33.902;151.160;2023-01-19T11:43:16;20.60;99.90
44647;DHT22;56315;-33.902;151.160;2023-01-19T11:45:43;20.70;99.90
44647;DHT22;56315;-33.902;151.160;2023-01-19T11:48:14;20.60;99.90
44647;DHT22;56315;-33.902;151.160;2023-01-19T11:50:44;20.60;99.90
44647;DHT22;56315;-33.902;151.160;2023-01-19T11:53:26;20.60;99.90
44647;DHT22;56315;-33.902;151.160;2023-01-19T11:56:09;20.60;99.90
44647;DHT22;56315;-33.902;151.160;2023-01-19T11:58:37;20.60;99.90
44647;DHT22;56315;-33.902;151.160;2023-01-19T12:04:13;20.60;99.90
44647;DHT22;56315;-33.902;151.160;2023-01-19T12:06:21;20.60;99.90
44647;DHT22;56315;-33.902;151.160;2023-01-19T12:09:23;20.60;99.90
44647;DHT22;56315;-33.902;151.160;2023-01-19T12:11:43;20.70;99.90
44647;DHT22;56315;-33.902;151.160;2023-01-19T12:16:58;20.60;99.90
44647;DHT22;56315;-33.902;151.160;2023-01-19T12:19:33;20.60;99.90
44647;DHT22;56315;-33.902;151.160;2023-01-19T12:22:02;20.60;99.90
44647;DHT22;56315;-33.902;151.160;2023-01-19T12:24:35;20.60;99.90
44647;DHT22;56315;-33.902;151.160;2023-01-19T12:27:36;20.60;99.90
44647;DHT22;56315;-33.902;151.160;2023-01-19T12:29:52;20.70;99.90
44647;DHT22;56315;-33.902;151.160;2023-01-19T12:32:30;20.70;99.90
44647;DHT22;56315;-33.902;151.160;2023-01-19T12:34:57;20.70;99.90
44647;DHT22;56315;-33.902;151.160;2023-01-19T12:39:54;20.60;99.90
44647;DHT22;56315;-33.902;151.160;2023-01-19T12:42:21;20.60;99.90
44647;DHT22;56315;-33.902;151.160;2023-01-19T12:44:48;20.70;99.90
44647;DHT22;56315;-33.902;151.160;2023-01-19T12:47:17;20.70;99.90
44647;DHT22;56315;-33.902;151.160;2023-01-19T12:49:47;20.70;99.90
44647;DHT22;56315;-33.902;151.160;2023-01-19T12:52:19;20.70;99.90
44647;DHT22;56315;-33.902;151.160;2023-01-19T12:57:27;20.70;99.90
44647;DHT22;56315;-33.902;151.160;2023-01-19T12:59:59;20.70;99.90
44647;DHT22;56315;-33.902;151.160;2023-01-19T13:13:17;20.70;99.90
44647;DHT22;56315;-33.902;151.160;2023-01-19T13:15:44;20.70;99.90
44647;DHT22;56315;-33.902;151.160;2023-01-19T13:18:20;20.60;99.90
44647;DHT22;56315;-33.902;151.160;2023-01-19T13:21:08;20.60;99.90
44647;DHT22;56315;-33.902;151.160;2023-01-19T13:26:16;20.50;99.90
44647;DHT22;56315;-33.902;151.160;2023-01-19T13:28:45;20.40;99.90
44647;DHT22;56315;-33.902;151.160;2023-01-19T13:31:14;20.40;99.90
44647;DHT22;56315;-33.902;151.160;2023-01-19T13:33:48;20.40;99.90
44647;DHT22;56315;-33.902;151.160;2023-01-19T13:36:19;20.40;99.90
44647;DHT22;56315;-33.902;151.160;2023-01-19T13:38:47;20.30;99.90
44647;DHT22;56315;-33.902;151.160;2023-01-19T13:41:15;20.20;99.90
44647;DHT22;56315;-33.902;151.160;2023-01-19T13:43:44;20.30;99.90
44647;DHT22;56315;-33.902;151.160;2023-01-19T13:46:11;20.20;99.90
44647;DHT22;56315;-33.902;151.160;2023-01-19T13:48:38;20.20;99.90
44647;DHT22;56315;-33.902;151.160;2023-01-19T13:51:09;20.20;99.90
44647;DHT22;56315;-33.902;151.160;2023-01-19T13:53:51;20.20;99.90
44647;DHT22;56315;-33.902;151.160;2023-01-19T13:56:19;20.10;99.90
44647;DHT22;56315;-33.902;151.160;2023-01-19T13:59:03;20.10;99.90
44647;DHT22;56315;-33.902;151.160;2023-01-19T14:01:35;20.10;99.90
44647;DHT22;56315;-33.902;151.160;2023-01-19T14:04:02;20.10;99.90
44647;DHT22;56315;-33.902;151.160;2023-01-19T14:06:30;20.00;99.90
44647;DHT22;56315;-33.902;151.160;2023-01-19T14:09:17;20.00;99.90
44647;DHT22;56315;-33.902;151.160;2023-01-19T14:12:03;20.00;99.90
44647;DHT22;56315;-33.902;151.160;2023-01-19T14:14:29;19.90;99.90
44647;DHT22;56315;-33.902;151.160;2023-01-19T14:16:56;19.90;99.90
44647;DHT22;56315;-33.902;151.160;2023-01-19T14:19:24;19.90;99.90
44647;DHT22;56315;-33.902;151.160;2023-01-19T14:22:03;19.90;99.90
44647;DHT22;56315;-33.902;151.160;2023-01-19T14:24:30;19.80;99.90
44647;DHT22;56315;-33.902;151.160;2023-01-19T14:27:18;19.80;99.90
44647;DHT22;56315;-33.902;151.160;2023-01-19T14:29:45;19.70;99.90
44647;DHT22;56315;-33.902;151.160;2023-01-19T14:32:18;19.70;99.90
44647;DHT22;56315;-33.902;151.160;2023-01-19T14:34:46;19.60;99.90
44647;DHT22;56315;-33.902;151.160;2023-01-19T14:37:24;19.60;99.90
44647;DHT22;56315;-33.902;151.160;2023-01-19T14:39:53;19.60;99.90
44647;DHT22;56315;-33.902;151.160;2023-01-19T14:45:16;19.50;99.90
44647;DHT22;56315;-33.902;151.160;2023-01-19T14:47:43;19.50;99.90
44647;DHT22;56315;-33.902;151.160;2023-01-19T14:50:22;19.50;99.90
44647;DHT22;56315;-33.902;151.160;2023-01-19T14:52:53;19.50;99.90
44647;DHT22;56315;-33.902;151.160;2023-01-19T14:55:25;19.50;99.90
44647;DHT22;56315;-33.902;151.160;2023-01-19T14:57:53;19.40;99.90
44647;DHT22;56315;-33.902;151.160;2023-01-19T15:00:20;19.40;99.90
44647;DHT22;56315;-33.902;151.160;2023-01-19T15:02:46;19.40;99.90
44647;DHT22;56315;-33.902;151.160;2023-01-19T15:05:13;19.50;99.90
44647;DHT22;56315;-33.902;151.160;2023-01-19T15:07:40;19.40;99.90
44647;DHT22;56315;-33.902;151.160;2023-01-19T15:10:18;19.50;99.90
44647;DHT22;56315;-33.902;151.160;2023-01-19T15:12:46;19.50;99.90
44647;DHT22;56315;-33.902;151.160;2023-01-19T15:15:17;19.50;99.90
44647;DHT22;56315;-33.902;151.160;2023-01-19T15:17:47;19.60;99.90
44647;DHT22;56315;-33.902;151.160;2023-01-19T15:20:18;19.50;99.90
44647;DHT22;56315;-33.902;151.160;2023-01-19T15:22:44;19.50;99.90
44647;DHT22;56315;-33.902;151.160;2023-01-19T15:25:27;19.50;99.90
44647;DHT22;56315;-33.902;151.160;2023-01-19T15:27:58;19.50;99.90
44647;DHT22;56315;-33.902;151.160;2023-01-19T15:30:26;19.40;99.90
44647;DHT22;56315;-33.902;151.160;2023-01-19T15:32:54;19.40;99.90
44647;DHT22;56315;-33.902;151.160;2023-01-19T15:35:21;19.40;99.90
44647;DHT22;56315;-33.902;151.160;2023-01-19T15:37:48;19.40;99.90
44647;DHT22;56315;-33.902;151.160;2023-01-19T15:40:16;19.40;99.90
44647;DHT22;56315;-33.902;151.160;2023-01-19T15:42:43;19.50;99.90
44647;DHT22;56315;-33.902;151.160;2023-01-19T15:47:55;19.60;99.90
44647;DHT22;56315;-33.902;151.160;2023-01-19T15:50:22;19.60;99.90
44647;DHT22;56315;-33.902;151.160;2023-01-19T15:52:49;19.70;99.90
44647;DHT22;56315;-33.902;151.160;2023-01-19T15:55:16;19.60;99.90
44647;DHT22;56315;-33.902;151.160;2023-01-19T15:57:43;19.60;99.90
44647;DHT22;56315;-33.902;151.160;2023-01-19T16:00:09;19.50;99.90
44647;DHT22;56315;-33.902;151.160;2023-01-19T16:02:36;19.50;99.90
44647;DHT22;56315;-33.902;151.160;2023-01-19T16:05:03;19.40;99.90
44647;DHT22;56315;-33.902;151.160;2023-01-19T16:07:31;19.30;99.90
44647;DHT22;56315;-33.902;151.160;2023-01-19T16:09:57;19.30;99.90
44647;DHT22;56315;-33.902;151.160;2023-01-19T16:12:24;19.30;99.90
44647;DHT22;56315;-33.902;151.160;2023-01-19T16:14:51;19.20;99.90